createdAt,value
2022-08-27T00:02:24.784Z,94927.09
2022-08-27T00:04:54.805Z,94924.91
2022-08-27T00:07:23.168Z,94929.59
2022-08-27T00:09:51.607Z,94935.19
2022-08-27T00:12:20.120Z,94926.69
2022-08-27T00:14:48.741Z,94927.50
2022-08-27T00:17:17.653Z,94935.50
2022-08-27T00:19:46.012Z,94937.41
2022-08-27T00:22:15.862Z,94932.81
2022-08-27T00:24:48.712Z,94936.81
2022-08-27T00:27:18.168Z,94911.75
2022-08-27T00:29:47.261Z,94934.22
2022-08-27T00:32:15.827Z,94937.06
2022-08-27T00:34:44.341Z,94938.88
2022-08-27T00:37:12.759Z,94942.41
2022-08-27T00:39:42.550Z,94940.78
2022-08-27T00:42:11.090Z,94928.53
2022-08-27T00:44:39.834Z,94936.25
2022-08-27T00:47:12.535Z,94926.63
2022-08-27T00:49:45.793Z,94932.97
2022-08-27T00:52:20.204Z,94935.47
2022-08-27T00:54:50.831Z,94945.31
2022-08-27T00:57:19.607Z,94935.56
2022-08-27T00:59:48.210Z,94922.31
2022-08-27T01:02:26.203Z,94940.34
2022-08-27T01:05:02.837Z,94925.72
2022-08-27T01:07:33.208Z,94942.44
2022-08-27T01:10:07.269Z,94944.28
2022-08-27T01:12:36.970Z,94950.19
2022-08-27T01:15:11.055Z,94951.13
2022-08-27T01:17:43.625Z,94949.97
2022-08-27T01:20:20.259Z,94949.25
2022-08-27T01:22:57.520Z,94950.09
2022-08-27T01:25:28.879Z,94932.78
2022-08-27T01:28:01.638Z,94949.13
2022-08-27T01:30:31.374Z,94888.75
2022-08-27T01:32:59.884Z,94953.38
2022-08-27T01:35:28.356Z,94951.59
2022-08-27T01:37:57.323Z,94952.16
2022-08-27T01:40:27.196Z,94951.13
2022-08-27T01:42:58.387Z,94900.94
2022-08-27T01:45:29.694Z,94948.25
2022-08-27T01:47:59.028Z,94958.53
2022-08-27T01:50:29.994Z,94958.09
2022-08-27T01:52:58.535Z,94951.16
2022-08-27T01:55:28.557Z,94958.81
2022-08-27T01:57:57.820Z,94956.38
2022-08-27T02:00:30.127Z,94954.09
2022-08-27T02:02:59.739Z,94956.69
2022-08-27T02:05:29.320Z,94945.16
2022-08-27T02:07:58.162Z,94906.38
2022-08-27T02:10:31.991Z,94957.00
2022-08-27T02:13:00.392Z,94948.16
2022-08-27T02:15:29.404Z,94952.44
2022-08-27T02:17:57.968Z,94953.66
2022-08-27T02:20:29.361Z,94957.03
2022-08-27T02:22:58.321Z,94947.63
2022-08-27T02:25:29.102Z,94952.66
2022-08-27T02:28:00.391Z,94951.09
2022-08-27T02:30:30.140Z,94956.56
2022-08-27T02:32:58.443Z,94950.09
2022-08-27T02:35:26.833Z,94952.09
2022-08-27T02:37:55.188Z,94958.91
2022-08-27T02:40:25.674Z,94959.94
2022-08-27T02:42:55.546Z,94963.63
2022-08-27T02:45:23.876Z,94961.81
2022-08-27T02:47:52.356Z,94957.91
2022-08-27T02:50:20.917Z,94961.94
2022-08-27T02:52:55.348Z,94967.63
2022-08-27T02:55:24.325Z,94967.09
2022-08-27T02:57:52.715Z,94966.53
2022-08-27T03:00:25.025Z,94968.66
2022-08-27T03:02:53.707Z,94963.84
2022-08-27T03:05:22.381Z,94964.50
2022-08-27T03:07:51.285Z,94960.47
2022-08-27T03:10:21.768Z,94965.97
2022-08-27T03:12:50.575Z,94893.34
2022-08-27T03:15:20.995Z,94966.44
2022-08-27T03:18:08.531Z,94938.97
2022-08-27T03:20:40.897Z,94968.88
2022-08-27T03:23:10.349Z,94974.94
2022-08-27T03:25:39.444Z,94956.66
2022-08-27T03:28:07.820Z,94977.28
2022-08-27T03:30:53.149Z,94981.56
2022-08-27T03:33:23.488Z,94982.78
2022-08-27T03:35:52.436Z,94983.69
2022-08-27T03:38:21.380Z,94969.50
2022-08-27T03:40:50.485Z,94994.16
2022-08-27T03:43:20.554Z,94994.75
2022-08-27T03:46:01.442Z,94955.75
2022-08-27T03:48:34.236Z,94988.97
2022-08-27T03:51:06.908Z,94951.69
2022-08-27T03:53:36.029Z,94990.97
2022-08-27T03:56:05.393Z,94992.97
2022-08-27T03:58:34.158Z,94990.34
2022-08-27T04:01:02.749Z,94994.16
2022-08-27T04:03:33.088Z,94997.66
2022-08-27T04:06:01.809Z,94982.75
2022-08-27T04:08:30.245Z,94992.38
2022-08-27T04:10:58.650Z,95004.09
2022-08-27T04:13:27.308Z,95007.31
2022-08-27T04:15:56.746Z,95006.38
2022-08-27T04:18:25.352Z,95012.16
2022-08-27T04:20:55.669Z,95010.91
2022-08-27T04:23:24.076Z,95017.75
2022-08-27T04:25:52.443Z,95020.81
2022-08-27T04:28:21.422Z,95023.50
2022-08-27T04:30:49.860Z,95021.53
2022-08-27T04:33:18.343Z,95018.03
2022-08-27T04:35:46.781Z,95027.00
2022-08-27T04:38:16.462Z,95027.16
2022-08-27T04:41:01.904Z,95024.16
2022-08-27T04:43:30.297Z,95021.78
2022-08-27T04:45:58.697Z,95021.69
2022-08-27T04:48:27.289Z,95020.81
2022-08-27T04:50:55.704Z,95026.94
2022-08-27T04:53:25.603Z,95019.94
2022-08-27T04:55:56.404Z,95030.31
2022-08-27T04:58:26.457Z,95028.03
2022-08-27T05:00:56.589Z,95029.81
2022-08-27T05:03:26.302Z,95033.00
2022-08-27T05:06:00.133Z,95032.69
2022-08-27T05:08:30.000Z,95028.44
2022-08-27T05:10:58.740Z,95031.94
2022-08-27T05:13:27.680Z,95033.97
2022-08-27T05:16:00.988Z,94889.16
2022-08-27T05:18:29.833Z,95041.56
2022-08-27T05:20:58.476Z,95037.09
2022-08-27T05:23:28.140Z,95039.19
2022-08-27T05:25:58.819Z,95018.56
2022-08-27T05:28:29.337Z,95026.50
2022-08-27T05:31:08.426Z,95041.72
2022-08-27T05:33:38.556Z,95026.84
2022-08-27T05:36:08.374Z,95025.03
2022-08-27T05:38:37.137Z,95049.16
2022-08-27T05:41:10.389Z,95046.47
2022-08-27T05:43:40.240Z,95035.00
2022-08-27T05:46:12.166Z,95045.75
2022-08-27T05:48:42.253Z,95039.88
2022-08-27T05:51:19.780Z,95047.78
2022-08-27T05:53:57.153Z,94998.97
2022-08-27T05:56:29.887Z,95044.19
2022-08-27T05:59:15.708Z,95046.94
2022-08-27T06:01:46.549Z,95044.19
2022-08-27T06:04:18.023Z,95042.34
2022-08-27T06:06:47.033Z,95055.91
2022-08-27T06:09:17.541Z,94992.34
2022-08-27T06:11:48.295Z,95042.50
2022-08-27T06:14:16.938Z,95047.34
2022-08-27T06:16:45.367Z,95044.69
2022-08-27T06:19:14.052Z,95044.94
2022-08-27T06:21:43.262Z,95047.84
2022-08-27T06:24:13.467Z,95044.56
2022-08-27T06:26:42.859Z,95048.00
2022-08-27T06:29:14.774Z,95041.22
2022-08-27T06:31:43.782Z,95023.59
2022-08-27T06:34:12.692Z,95041.34
2022-08-27T06:36:43.064Z,95020.03
2022-08-27T06:39:15.517Z,95040.88
2022-08-27T06:41:45.629Z,95042.59
2022-08-27T06:44:15.864Z,95033.38
2022-08-27T06:46:45.214Z,95027.84
2022-08-27T06:49:14.054Z,95035.47
2022-08-27T06:51:46.952Z,95032.44
2022-08-27T06:54:17.520Z,95031.28
2022-08-27T06:56:46.035Z,95031.97
2022-08-27T06:59:17.791Z,95030.97
2022-08-27T07:01:49.418Z,95033.59
2022-08-27T07:04:21.035Z,94973.38
2022-08-27T07:06:51.113Z,95026.72
2022-08-27T07:09:20.772Z,95028.38
2022-08-27T07:11:49.235Z,95026.53
2022-08-27T07:14:19.153Z,95026.75
2022-08-27T07:16:48.299Z,95024.88
2022-08-27T07:19:18.872Z,95030.25
2022-08-27T07:21:49.605Z,95027.13
2022-08-27T07:24:19.192Z,95038.84
2022-08-27T07:26:47.621Z,95033.44
2022-08-27T07:29:16.774Z,95023.63
2022-08-27T07:31:46.582Z,95033.84
2022-08-27T07:34:15.222Z,95036.16
2022-08-27T07:36:43.543Z,95031.50
2022-08-27T07:39:14.036Z,95038.91
2022-08-27T07:41:56.195Z,95031.88
2022-08-27T07:44:28.046Z,95033.03
2022-08-27T07:47:00.932Z,95035.41
2022-08-27T07:49:30.131Z,95029.00
2022-08-27T07:51:58.523Z,95033.44
2022-08-27T07:54:27.276Z,95024.78
2022-08-27T07:56:56.272Z,95026.78
2022-08-27T07:59:26.230Z,95033.34
2022-08-27T08:01:55.102Z,95024.78
2022-08-27T08:04:26.782Z,95017.50
2022-08-27T08:06:55.785Z,95014.66
2022-08-27T08:09:25.223Z,95013.84
2022-08-27T08:11:54.327Z,95022.09
2022-08-27T08:14:22.820Z,95022.84
2022-08-27T08:16:51.546Z,95018.63
2022-08-27T08:19:20.008Z,95011.53
2022-08-27T08:21:52.969Z,95018.53
2022-08-27T08:24:28.224Z,95012.03
2022-08-27T08:26:56.584Z,95031.06
2022-08-27T08:29:24.957Z,95010.09
2022-08-27T08:31:53.361Z,95004.78
2022-08-27T08:34:21.861Z,95003.63
2022-08-27T08:36:55.042Z,94974.94
2022-08-27T08:39:24.384Z,95014.97
2022-08-27T08:41:55.480Z,95012.22
2022-08-27T08:44:32.680Z,94974.63
2022-08-27T08:47:08.368Z,94984.94
2022-08-27T08:49:46.094Z,95008.78
2022-08-27T08:52:31.512Z,95002.53
2022-08-27T08:55:10.049Z,95001.44
2022-08-27T08:57:43.476Z,95000.50
2022-08-27T09:00:14.769Z,94990.75
2022-08-27T09:02:50.612Z,94994.84
2022-08-27T09:05:19.097Z,94989.84
2022-08-27T09:08:21.282Z,94993.47
2022-08-27T09:10:54.088Z,94996.88
2022-08-27T09:13:26.537Z,94987.69
2022-08-27T09:15:59.367Z,94986.53
2022-08-27T09:18:27.993Z,94983.16
2022-08-27T09:21:08.927Z,94983.34
2022-08-27T09:23:46.852Z,94979.28
2022-08-27T09:26:23.992Z,94974.34
2022-08-27T09:29:15.552Z,94947.63
2022-08-27T09:31:44.719Z,94930.47
2022-08-27T09:34:13.172Z,94972.13
2022-08-27T09:36:59.472Z,94950.34
2022-08-27T09:39:36.396Z,94961.81
2022-08-27T09:42:06.327Z,94959.31
2022-08-27T09:44:49.143Z,94966.38
2022-08-27T09:47:20.165Z,94958.78
2022-08-27T09:49:49.126Z,94959.78
2022-08-27T09:52:33.164Z,94956.34
2022-08-27T09:55:08.422Z,94948.47
2022-08-27T09:57:42.407Z,94929.84
2022-08-27T10:00:17.054Z,94939.94
2022-08-27T10:02:54.108Z,94954.75
2022-08-27T10:05:29.273Z,94949.31
2022-08-27T10:08:04.061Z,94908.19
2022-08-27T10:10:45.511Z,94946.56
2022-08-27T10:13:19.818Z,94936.91
2022-08-27T10:16:02.469Z,94937.91
2022-08-27T10:18:41.427Z,94942.44
2022-08-27T10:21:17.249Z,94942.19
2022-08-27T10:23:54.085Z,94940.34
2022-08-27T10:26:31.948Z,94897.34
2022-08-27T10:29:14.656Z,94936.34
2022-08-27T10:31:53.700Z,94936.03
2022-08-27T10:34:37.495Z,94927.75
2022-08-27T10:37:15.238Z,94929.84
2022-08-27T10:40:14.386Z,94923.75
2022-08-27T10:42:57.478Z,94927.13
2022-08-27T10:45:42.739Z,94925.06
2022-08-27T10:48:24.634Z,94931.88
2022-08-27T10:50:58.298Z,94925.22
2022-08-27T10:53:38.470Z,94923.78
2022-08-27T10:56:15.757Z,94921.84
2022-08-27T10:59:07.388Z,94918.91
2022-08-27T11:01:47.762Z,94894.50
2022-08-27T11:04:21.721Z,94885.66
2022-08-27T11:06:58.046Z,94858.09
2022-08-27T11:09:38.006Z,94906.16
2022-08-27T11:12:14.238Z,94902.06
2022-08-27T11:14:49.488Z,94896.63
2022-08-27T11:17:24.607Z,94891.31
2022-08-27T11:19:58.332Z,94896.22
2022-08-27T11:22:34.684Z,94900.69
2022-08-27T11:25:11.060Z,94891.88
2022-08-27T11:27:41.246Z,94891.19
2022-08-27T11:30:18.142Z,94890.03
2022-08-27T11:32:56.293Z,94882.97
2022-08-27T11:35:34.755Z,94862.09
2022-08-27T11:38:31.584Z,94892.69
2022-08-27T11:41:18.052Z,94891.59
2022-08-27T11:43:47.377Z,94885.50
2022-08-27T11:46:25.242Z,94885.31
2022-08-27T11:48:59.618Z,94881.00
2022-08-27T11:51:33.213Z,94885.16
2022-08-27T11:54:03.609Z,94880.06
2022-08-27T11:56:40.714Z,94840.03
2022-08-27T11:59:21.778Z,94885.97
2022-08-27T12:01:53.539Z,94878.63
2022-08-27T12:04:33.547Z,94879.25
2022-08-27T12:07:06.300Z,94883.69
2022-08-27T12:09:56.220Z,94879.47
2022-08-27T12:12:49.973Z,94861.59
2022-08-27T12:15:23.526Z,94862.00
2022-08-27T12:18:10.433Z,94860.13
2022-08-27T12:20:55.726Z,94867.13
2022-08-27T12:23:43.985Z,94856.53
2022-08-27T12:26:28.044Z,94856.63
2022-08-27T12:29:27.905Z,94854.50
2022-08-27T12:32:04.514Z,94851.34
2022-08-27T12:34:45.421Z,94850.34
2022-08-27T12:37:14.852Z,94850.50
2022-08-27T12:39:49.523Z,94845.66
2022-08-27T12:42:22.946Z,94847.72
2022-08-27T12:44:56.268Z,94853.59
2022-08-27T12:47:25.633Z,94852.41
2022-08-27T12:49:58.354Z,94839.88
2022-08-27T12:53:02.124Z,94849.84
2022-08-27T12:55:41.317Z,94845.66
2022-08-27T12:58:15.861Z,94840.38
2022-08-27T13:01:07.846Z,94839.16
2022-08-27T13:03:39.849Z,94826.06
2022-08-27T13:06:20.722Z,94841.41
2022-08-27T13:08:55.672Z,94835.25
2022-08-27T13:11:26.775Z,94845.31
2022-08-27T13:14:09.133Z,94841.66
2022-08-27T13:16:46.860Z,94812.38
2022-08-27T13:19:23.118Z,94839.38
2022-08-27T13:21:54.630Z,94852.03
2022-08-27T13:24:31.286Z,94849.59
2022-08-27T13:26:59.978Z,94848.50
2022-08-27T13:29:29.916Z,94821.31
2022-08-27T13:32:00.008Z,94847.56
2022-08-27T13:34:33.373Z,94856.19
2022-08-27T13:37:06.243Z,94859.50
2022-08-27T13:39:36.156Z,94855.84
2022-08-27T13:42:07.093Z,94854.31
2022-08-27T13:44:38.344Z,94836.78
2022-08-27T13:47:09.269Z,94854.41
2022-08-27T13:49:40.491Z,94851.63
2022-08-27T13:52:22.428Z,94870.81
2022-08-27T13:54:53.836Z,94873.44
2022-08-27T13:57:26.190Z,94865.41
2022-08-27T13:59:54.830Z,94845.63
2022-08-27T14:02:29.065Z,94903.78
2022-08-27T14:05:11.772Z,94931.03
2022-08-27T14:07:47.625Z,94890.25
2022-08-27T14:10:33.252Z,94928.38
2022-08-27T14:13:04.162Z,94872.94
2022-08-27T14:15:36.149Z,94937.53
2022-08-27T14:18:06.854Z,94943.78
2022-08-27T14:20:35.566Z,94954.38
2022-08-27T14:23:05.736Z,94962.94
2022-08-27T14:25:35.059Z,94959.88
2022-08-27T14:28:03.759Z,94948.91
2022-08-27T14:30:32.290Z,94952.75
2022-08-27T14:33:03.007Z,94957.50
2022-08-27T14:35:33.609Z,94931.75
2022-08-27T14:38:08.113Z,94946.56
2022-08-27T14:40:36.494Z,94955.97
2022-08-27T14:43:05.316Z,94964.09
2022-08-27T14:45:35.298Z,94971.75
2022-08-27T14:48:04.378Z,94969.81
2022-08-27T14:50:32.783Z,94972.22
2022-08-27T14:53:01.300Z,94821.56
2022-08-27T14:55:31.647Z,94960.63
2022-08-27T14:58:00.409Z,94898.72
2022-08-27T15:00:30.468Z,94951.28
2022-08-27T15:02:59.209Z,94946.19
2022-08-27T15:05:28.320Z,94963.75
2022-08-27T15:07:58.156Z,94961.44
2022-08-27T15:10:27.165Z,94961.81
2022-08-27T15:12:57.015Z,94955.56
2022-08-27T15:15:25.988Z,94960.22
2022-08-27T15:17:54.275Z,94960.22
2022-08-27T15:20:22.625Z,94959.81
2022-08-27T15:22:53.254Z,94941.44
2022-08-27T15:25:22.214Z,94954.31
2022-08-27T15:27:50.629Z,94947.69
2022-08-27T15:30:26.146Z,94941.38
2022-08-27T15:32:54.569Z,94941.00
2022-08-27T15:35:26.587Z,94947.16
2022-08-27T15:37:56.761Z,94954.09
2022-08-27T15:40:26.223Z,94952.53
2022-08-27T15:42:58.093Z,94957.63
2022-08-27T15:45:28.012Z,94958.50
2022-08-27T15:47:56.689Z,94899.69
2022-08-27T15:50:25.566Z,94953.78
2022-08-27T15:53:00.951Z,94965.34
2022-08-27T15:55:31.585Z,94954.59
2022-08-27T15:58:00.149Z,94979.28
2022-08-27T16:00:33.463Z,94990.00
2022-08-27T16:03:02.648Z,94993.81
2022-08-27T16:05:35.225Z,95000.34
2022-08-27T16:08:04.430Z,94993.00
2022-08-27T16:10:33.083Z,95009.31
2022-08-27T16:13:01.739Z,95004.47
2022-08-27T16:15:33.963Z,95006.78
2022-08-27T16:18:03.898Z,95019.41
2022-08-27T16:20:32.546Z,95016.09
2022-08-27T16:23:01.230Z,95022.28
2022-08-27T16:25:29.717Z,95035.97
2022-08-27T16:28:01.077Z,95039.56
2022-08-27T16:30:30.094Z,95039.56
2022-08-27T16:33:00.271Z,95039.66
2022-08-27T16:35:28.600Z,95049.69
2022-08-27T16:37:57.481Z,95033.06
2022-08-27T16:40:26.869Z,95046.00
2022-08-27T16:42:55.729Z,95042.22
2022-08-27T16:45:25.033Z,95059.97
2022-08-27T16:48:10.997Z,95062.81
2022-08-27T16:50:42.169Z,95057.00
2022-08-27T16:53:13.987Z,95065.03
2022-08-27T16:55:43.762Z,95053.78
2022-08-27T16:58:19.177Z,95053.38
2022-08-27T17:00:51.316Z,95040.25
2022-08-27T17:03:20.804Z,95063.25
2022-08-27T17:05:50.983Z,95067.03
2022-08-27T17:08:20.863Z,95069.19
2022-08-27T17:10:56.758Z,95070.47
2022-08-27T17:13:28.264Z,95073.47
2022-08-27T17:15:58.028Z,95069.91
2022-08-27T17:18:32.901Z,95089.25
2022-08-27T17:21:06.636Z,95069.31
2022-08-27T17:23:38.192Z,95091.44
2022-08-27T17:26:09.380Z,95044.09
2022-08-27T17:28:39.859Z,95057.41
2022-08-27T17:31:13.663Z,95096.44
2022-08-27T17:33:45.049Z,95097.97
2022-08-27T17:36:16.572Z,95113.84
2022-08-27T17:38:45.361Z,95116.06
2022-08-27T17:41:16.977Z,95116.97
2022-08-27T17:43:45.436Z,95112.75
2022-08-27T17:46:13.949Z,95120.56
2022-08-27T17:48:42.723Z,95123.66
2022-08-27T17:51:12.781Z,95115.38
2022-08-27T17:53:48.305Z,95124.41
2022-08-27T17:56:18.837Z,95048.00
2022-08-27T17:58:51.548Z,95104.41
2022-08-27T18:01:24.755Z,95141.06
2022-08-27T18:03:58.107Z,95106.41
2022-08-27T18:06:32.282Z,95033.31
2022-08-27T18:09:03.043Z,94853.94
2022-08-27T18:11:32.804Z,95137.94
2022-08-27T18:14:04.889Z,95009.09
2022-08-27T18:16:38.687Z,95150.47
2022-08-27T18:19:07.848Z,95155.31
2022-08-27T18:21:46.441Z,95119.44
2022-08-27T18:24:16.678Z,95155.59
2022-08-27T18:26:46.093Z,95142.31
2022-08-27T18:29:16.494Z,95153.53
2022-08-27T18:31:45.501Z,95147.19
2022-08-27T18:34:18.812Z,95113.03
2022-08-27T18:36:49.572Z,95150.00
2022-08-27T18:39:19.400Z,95152.91
2022-08-27T18:41:48.186Z,95156.97
2022-08-27T18:44:17.757Z,95139.09
2022-08-27T18:46:46.595Z,95155.59
2022-08-27T18:49:15.046Z,95169.03
2022-08-27T18:51:49.403Z,95165.16
2022-08-27T18:54:23.153Z,95169.94
2022-08-27T18:56:51.909Z,95130.72
2022-08-27T18:59:20.425Z,95171.88
2022-08-27T19:01:48.999Z,95173.66
2022-08-27T19:04:19.071Z,95174.38
2022-08-27T19:06:48.525Z,95172.03
2022-08-27T19:09:22.472Z,95130.59
2022-08-27T19:11:52.002Z,95175.88
2022-08-27T19:14:20.307Z,95185.22
2022-08-27T19:16:55.976Z,95123.66
2022-08-27T19:19:26.195Z,95170.84
2022-08-27T19:21:54.702Z,95186.69
2022-08-27T19:24:24.518Z,95194.00
2022-08-27T19:26:54.351Z,95194.63
2022-08-27T19:29:22.756Z,95184.97
2022-08-27T19:31:51.167Z,95203.03
2022-08-27T19:34:20.220Z,95206.09
2022-08-27T19:36:48.625Z,95207.38
2022-08-27T19:39:17.376Z,95210.75
2022-08-27T19:41:47.107Z,95210.56
2022-08-27T19:44:34.961Z,95212.56
2022-08-27T19:47:03.849Z,95206.59
2022-08-27T19:49:33.072Z,95214.00
2022-08-27T19:52:04.993Z,95217.66
2022-08-27T19:54:51.747Z,95222.19
2022-08-27T19:57:25.811Z,95231.53
2022-08-27T19:59:54.217Z,95230.22
2022-08-27T20:02:22.592Z,95222.63
2022-08-27T20:05:14.347Z,95226.81
2022-08-27T20:07:39.417Z,95231.25
2022-08-27T20:10:08.872Z,95226.03
2022-08-27T20:12:39.057Z,95233.03
2022-08-27T20:15:08.684Z,95228.22
2022-08-27T20:17:37.135Z,95227.56
2022-08-27T20:20:07.423Z,95194.69
2022-08-27T20:22:35.808Z,95236.25
2022-08-27T20:25:04.342Z,95227.41
2022-08-27T20:27:32.705Z,95243.25
2022-08-27T20:30:04.770Z,95241.72
2022-08-27T20:32:35.508Z,95238.84
2022-08-27T20:35:03.977Z,95239.91
2022-08-27T20:37:32.712Z,95243.72
2022-08-27T20:40:01.177Z,95243.66
2022-08-27T20:42:29.818Z,95237.72
2022-08-27T20:44:58.190Z,95234.50
2022-08-27T20:47:29.506Z,95244.25
2022-08-27T20:49:58.289Z,95241.56
2022-08-27T20:52:27.669Z,95246.81
2022-08-27T20:54:56.039Z,95244.63
2022-08-27T20:57:24.425Z,95243.84
2022-08-27T21:00:10.270Z,95251.69
2022-08-27T21:02:41.585Z,95243.84
2022-08-27T21:05:14.889Z,95230.41
2022-08-27T21:07:44.662Z,95229.97
2022-08-27T21:10:13.166Z,95236.22
2022-08-27T21:12:41.777Z,95236.06
2022-08-27T21:15:11.291Z,95246.25
2022-08-27T21:17:41.474Z,95240.16
2022-08-27T21:20:12.249Z,95240.06
2022-08-27T21:22:41.930Z,95243.88
2022-08-27T21:25:12.705Z,95247.47
2022-08-27T21:27:41.310Z,95242.03
2022-08-27T21:30:12.116Z,95240.34
2022-08-27T21:32:41.998Z,95233.94
2022-08-27T21:35:11.261Z,95227.66
2022-08-27T21:37:39.691Z,95208.69
2022-08-27T21:40:09.548Z,95249.88
2022-08-27T21:42:37.998Z,95247.28
2022-08-27T21:45:07.471Z,95239.97
2022-08-27T21:47:36.819Z,95249.59
2022-08-27T21:50:09.967Z,95253.81
2022-08-27T21:52:38.471Z,95244.97
2022-08-27T21:55:08.448Z,95249.84
2022-08-27T21:57:36.832Z,95248.78
2022-08-27T22:00:16.125Z,95249.59
2022-08-27T22:02:44.647Z,95243.81
2022-08-27T22:05:14.561Z,95237.88
2022-08-27T22:07:42.948Z,95255.88
2022-08-27T22:10:11.501Z,95252.53
2022-08-27T22:12:40.429Z,95259.38
2022-08-27T22:15:11.230Z,95257.84
2022-08-27T22:17:39.736Z,95214.22
2022-08-27T22:20:10.574Z,95247.44
2022-08-27T22:22:40.576Z,95214.81
2022-08-27T22:25:09.785Z,95250.28
2022-08-27T22:27:38.293Z,95200.09
2022-08-27T22:30:11.129Z,95247.47
2022-08-27T22:32:40.164Z,95244.47
2022-08-27T22:35:09.717Z,95245.66
2022-08-27T22:37:39.608Z,95239.97
2022-08-27T22:40:19.370Z,95226.19
2022-08-27T22:42:48.867Z,95251.47
2022-08-27T22:45:17.580Z,95235.19
2022-08-27T22:47:46.089Z,95253.47
2022-08-27T22:50:15.090Z,95251.88
2022-08-27T22:52:45.525Z,95250.91
2022-08-27T22:55:16.400Z,95207.69
2022-08-27T22:57:44.825Z,95201.56
2022-08-27T23:00:19.047Z,95256.13
2022-08-27T23:02:47.564Z,95257.53
2022-08-27T23:05:17.299Z,95253.88
2022-08-27T23:07:47.536Z,95255.81
2022-08-27T23:10:18.381Z,95244.78
2022-08-27T23:12:47.266Z,95247.03
2022-08-27T23:15:18.777Z,95252.44
2022-08-27T23:17:47.142Z,95254.34
2022-08-27T23:20:16.205Z,95256.41
2022-08-27T23:22:45.651Z,95254.72
2022-08-27T23:25:33.744Z,95248.75
2022-08-27T23:28:06.191Z,95256.31
2022-08-27T23:30:36.145Z,95263.44
2022-08-27T23:33:05.064Z,95259.91
2022-08-27T23:35:33.718Z,95256.66
2022-08-27T23:38:02.092Z,95250.47
2022-08-27T23:40:32.002Z,95244.94
2022-08-27T23:43:00.406Z,95255.19
2022-08-27T23:45:29.108Z,95250.69
2022-08-27T23:47:57.428Z,95253.88
2022-08-27T23:50:33.779Z,95253.50
2022-08-27T23:53:02.657Z,95250.00
2022-08-27T23:55:33.693Z,95248.31
2022-08-27T23:58:02.652Z,95251.22
